Time;durP1;ratioP1;P1;durP2;ratioP2;P2;SDS_P1;SDS_P2;PMS_P1;PMS_P2;Temp;Humidity;BMP_temperature;BMP_pressure;BME280_temperature;BME280_humidity;BME280_pressure;Samples;Min_cycle;Max_cycle;Signal;HPM_P1;HPM_P2
2021/07/03 00:00:10;;;;;;;12.68;10.28;;;;;;;16.29;77.04;98577.17;2249228;79;20881;-79
2021/07/03 00:03:13;;;;;;;12.60;10.00;;;;;;;16.34;77.14;98581.05;2227142;79;20891;-78
2021/07/03 00:06:14;;;;;;;11.00;9.80;;;;;;;16.35;76.85;98584.98;2249346;79;20908;-78
2021/07/03 00:09:15;;;;;;;10.45;9.40;;;;;;;16.40;76.67;98577.88;2249016;79;20998;-79
2021/07/03 00:12:16;;;;;;;10.25;9.28;;;;;;;16.41;76.66;98574.34;2249176;79;20943;-79
2021/07/03 00:15:20;;;;;;;10.78;9.78;;;;;;;16.43;76.49;98576.51;2249357;79;20971;-79
2021/07/03 00:18:19;;;;;;;11.08;9.45;;;;;;;16.43;76.55;98573.88;2249098;79;20972;-79
2021/07/03 00:21:20;;;;;;;9.95;8.98;;;;;;;16.41;76.61;98578.30;2249362;79;21004;-79
2021/07/03 00:24:21;;;;;;;11.80;9.30;;;;;;;16.42;76.50;98569.50;2249314;79;20920;-79
2021/07/03 00:27:22;;;;;;;10.10;8.88;;;;;;;16.41;76.59;98570.39;2249270;79;21313;-79
2021/07/03 00:30:23;;;;;;;9.15;8.23;;;;;;;16.38;77.12;98574.39;2249321;79;20916;-79
2021/07/03 00:33:24;;;;;;;9.50;8.53;;;;;;;16.35;77.02;98575.76;2249458;79;21332;-78
2021/07/03 00:36:25;;;;;;;8.65;7.75;;;;;;;16.36;77.00;98578.81;2249345;79;21095;-78
2021/07/03 00:39:26;;;;;;;9.13;8.18;;;;;;;16.35;76.90;98577.08;2249347;79;20968;-79
2021/07/03 00:42:26;;;;;;;11.05;8.33;;;;;;;16.36;76.94;98568.28;2249318;79;20916;-78
2021/07/03 00:45:27;;;;;;;8.58;7.67;;;;;;;16.37;76.85;98573.97;2249353;79;20885;-79
2021/07/03 00:48:29;;;;;;;9.03;8.13;;;;;;;16.36;76.91;98572.23;2248894;79;20936;-79
2021/07/03 00:51:30;;;;;;;8.78;7.85;;;;;;;16.36;77.06;98574.86;2249405;79;20949;-79
2021/07/03 00:54:31;;;;;;;9.70;8.75;;;;;;;16.35;76.98;98575.76;2249265;79;20972;-79
2021/07/03 00:57:33;;;;;;;11.30;8.95;;;;;;;16.36;77.05;98580.58;2280300;77;20944;-78
2021/07/03 01:00:33;;;;;;;9.78;8.78;;;;;;;16.35;77.15;98570.94;2291454;78;20943;-78
2021/07/03 01:03:34;;;;;;;8.75;7.95;;;;;;;16.35;77.40;98572.25;2291575;78;21007;-79
2021/07/03 01:06:35;;;;;;;10.25;7.75;;;;;;;16.33;77.49;98563.50;2291595;78;20967;-78
2021/07/03 01:09:36;;;;;;;11.15;8.20;;;;;;;16.28;77.86;98553.05;2291303;78;20947;-79
2021/07/03 01:12:37;;;;;;;8.38;7.58;;;;;;;16.28;77.85;98549.54;2291720;78;20905;-79
2021/07/03 01:15:38;;;;;;;9.25;8.35;;;;;;;16.29;78.41;98556.09;2291741;78;20989;-78
2021/07/03 01:18:39;;;;;;;9.33;8.43;;;;;;;16.27;78.49;98563.16;2291612;78;20935;-79
2021/07/03 01:21:40;;;;;;;9.78;8.80;;;;;;;16.30;78.13;98553.89;2291766;78;20904;-79
2021/07/03 01:24:41;;;;;;;11.78;9.68;;;;;;;16.33;78.17;98563.06;2291666;78;20916;-79
2021/07/03 01:27:42;;;;;;;10.08;9.13;;;;;;;16.32;78.68;98556.05;2291602;78;20888;-79
2021/07/03 01:30:42;;;;;;;10.83;9.83;;;;;;;16.33;78.55;98549.89;2291413;78;20921;-78
2021/07/03 01:33:43;;;;;;;10.72;8.78;;;;;;;16.34;78.91;98552.95;2291615;78;21249;-78
2021/07/03 01:36:44;;;;;;;14.35;10.85;;;;;;;16.35;78.86;98548.55;2291750;78;20972;-79
2021/07/03 01:39:45;;;;;;;11.10;9.87;;;;;;;16.36;79.37;98541.94;2291303;78;21019;-79
2021/07/03 01:42:46;;;;;;;12.40;10.90;;;;;;;16.37;79.26;98545.00;2291688;78;20912;-79
2021/07/03 01:45:47;;;;;;;11.53;10.32;;;;;;;16.36;79.43;98537.98;2291673;78;20916;-80
2021/07/03 01:48:48;;;;;;;12.40;11.03;;;;;;;16.37;79.18;98546.31;2291628;78;20885;-80
2021/07/03 01:51:49;;;;;;;13.53;12.23;;;;;;;16.39;79.13;98541.89;2291725;78;20965;-79
2021/07/03 01:54:50;;;;;;;13.78;12.30;;;;;;;16.41;79.33;98542.73;2291608;78;20869;-79
2021/07/03 01:57:51;;;;;;;13.55;11.85;;;;;;;16.41;80.00;98544.05;2258960;78;21037;-79
2021/07/03 02:00:52;;;;;;;14.45;12.75;;;;;;;16.41;80.10;98541.86;2249417;79;20916;-79
2021/07/03 02:03:53;;;;;;;12.73;11.53;;;;;;;16.41;80.34;98547.13;2249538;79;20917;-79
2021/07/03 02:06:54;;;;;;;14.20;12.90;;;;;;;16.42;79.90;98546.23;2249463;79;20912;-78
2021/07/03 02:09:55;;;;;;;15.83;14.28;;;;;;;16.42;80.08;98536.57;2249235;79;21007;-79
2021/07/03 02:12:56;;;;;;;20.23;15.75;;;;;;;16.42;80.08;98536.57;2249357;79;20976;-80
2021/07/03 02:15:57;;;;;;;17.20;14.10;;;;;;;16.42;80.47;98535.25;2249336;79;20939;-79
2021/07/03 02:18:58;;;;;;;17.07;15.38;;;;;;;16.43;80.06;98534.36;2249555;79;20954;-79
2021/07/03 02:21:59;;;;;;;20.45;18.12;;;;;;;16.48;80.28;98542.22;2249539;79;20912;-78
2021/07/03 02:24:59;;;;;;;19.40;16.27;;;;;;;16.44;81.27;98536.09;2249546;79;20897;-78
2021/07/03 02:28:00;;;;;;;18.60;16.75;;;;;;;16.42;80.52;98533.06;2249504;79;20904;-79
2021/07/03 02:31:01;;;;;;;22.52;18.45;;;;;;;16.41;80.55;98536.14;2249593;79;20940;-78
2021/07/03 02:34:02;;;;;;;20.40;18.25;;;;;;;16.41;80.90;98545.37;2249398;79;20944;-79
2021/07/03 02:37:04;;;;;;;19.80;17.98;;;;;;;16.42;80.83;98541.84;2249517;79;21015;-79
2021/07/03 02:40:05;;;;;;;20.35;18.27;;;;;;;16.40;80.88;98543.63;2249060;79;20976;-79
2021/07/03 02:43:06;;;;;;;19.92;18.00;;;;;;;16.39;81.29;98543.20;2249673;79;20943;-79
2021/07/03 02:46:07;;;;;;;21.35;18.95;;;;;;;16.38;81.03;98548.50;2249362;79;20912;-79
2021/07/03 02:49:07;;;;;;;19.52;17.73;;;;;;;16.38;81.81;98550.69;2249541;79;20944;-79
2021/07/03 02:52:08;;;;;;;20.62;18.52;;;;;;;16.36;81.96;98555.11;2249516;79;20948;-79
2021/07/03 02:55:09;;;;;;;25.50;19.65;;;;;;;16.33;81.83;98559.11;2249489;79;20904;-78
2021/07/03 02:58:10;;;;;;;23.90;19.25;;;;;;;16.30;81.86;98553.89;2274563;77;21298;-79
2021/07/03 03:01:11;;;;;;;20.50;18.52;;;;;;;16.31;82.06;98556.08;2281710;78;20906;-78
2021/07/03 03:04:12;;;;;;;21.40;19.17;;;;;;;16.32;81.74;98550.78;2281609;78;20977;-81
2021/07/03 03:07:13;;;;;;;21.52;19.25;;;;;;;16.33;82.03;98549.89;2281793;78;20879;-79
2021/07/03 03:10:14;;;;;;;23.38;20.95;;;;;;;16.32;81.84;98551.23;2281673;78;21445;-79
2021/07/03 03:16:18;;;;;;;23.10;20.70;;;;;;;16.28;81.81;98561.39;2260847;78;20937;-78
2021/07/03 03:19:19;;;;;;;25.75;22.40;;;;;;;16.27;82.40;98563.16;2281664;78;20998;-79
2021/07/03 03:22:20;;;;;;;25.12;21.65;;;;;;;16.24;82.51;98574.61;2281618;78;21281;-79
2021/07/03 03:25:21;;;;;;;27.75;23.85;;;;;;;16.23;82.62;98570.67;2282172;78;21017;-81
2021/07/03 03:28:22;;;;;;;32.25;24.55;;;;;;;16.21;82.80;98577.28;2281770;78;21247;-79
2021/07/03 03:31:23;;;;;;;27.37;23.85;;;;;;;16.22;82.39;98566.30;2281621;78;21353;-79
2021/07/03 03:34:24;;;;;;;28.52;24.20;;;;;;;16.20;82.58;98566.77;2281415;78;21298;-80
2021/07/03 03:37:25;;;;;;;25.52;22.75;;;;;;;16.21;82.51;98565.44;2281661;78;20986;-79
2021/07/03 03:40:27;;;;;;;33.85;23.57;;;;;;;16.23;82.07;98563.65;2281846;78;20919;-79
2021/07/03 03:43:28;;;;;;;28.12;22.32;;;;;;;16.25;82.24;98563.17;2281807;78;21153;-81
2021/07/03 03:46:29;;;;;;;29.95;21.05;;;;;;;16.27;82.11;98568.42;2281794;78;21270;-80
2021/07/03 03:49:31;;;;;;;24.67;21.07;;;;;;;16.30;82.21;98572.33;2281744;78;21142;-80
2021/07/03 03:52:31;;;;;;;24.75;19.75;;;;;;;16.31;81.96;98562.66;2281351;78;21259;-80
2021/07/03 03:55:33;;;;;;;23.02;20.57;;;;;;;16.33;82.13;98555.16;2281812;78;20933;-80
2021/07/03 03:58:34;;;;;;;23.57;19.27;;;;;;;16.35;82.02;98556.00;2281640;78;21014;-80
2021/07/03 04:01:35;;;;;;;20.97;18.98;;;;;;;16.37;82.01;98554.21;2281840;78;20895;-78
2021/07/03 04:04:35;;;;;;;23.62;17.57;;;;;;;16.38;81.75;98556.41;2281771;78;20925;-81
2021/07/03 04:07:36;;;;;;;22.30;19.95;;;;;;;16.42;81.45;98557.64;2281774;78;20883;-79
2021/07/03 04:10:37;;;;;;;23.15;19.85;;;;;;;16.48;81.29;98556.70;2281767;78;20919;-80
2021/07/03 04:13:38;;;;;;;22.30;19.95;;;;;;;16.48;81.23;98554.94;2281742;78;20970;-80
2021/07/03 04:16:39;;;;;;;21.52;19.42;;;;;;;16.52;81.16;98561.90;2281903;78;20899;-80
2021/07/03 04:19:40;;;;;;;22.87;19.27;;;;;;;16.50;81.29;98558.87;2281779;78;20907;-80
2021/07/03 04:22:41;;;;;;;21.20;19.02;;;;;;;16.52;81.45;98564.53;2281758;78;20910;-80
2021/07/03 04:25:42;;;;;;;22.75;17.73;;;;;;;16.53;81.29;98553.55;2281765;78;20974;-79
2021/07/03 04:28:43;;;;;;;21.95;16.62;;;;;;;16.59;81.23;98557.84;2281611;78;21325;-79
2021/07/03 04:31:44;;;;;;;18.52;15.32;;;;;;;16.62;80.97;98563.06;2281733;78;20962;-79
2021/07/03 04:34:45;;;;;;;17.37;15.15;;;;;;;16.68;80.84;98564.31;2281269;78;21322;-79
2021/07/03 04:37:46;;;;;;;17.15;14.73;;;;;;;16.74;80.41;98564.20;2281664;78;20941;-80
2021/07/03 04:40:47;;;;;;;15.72;14.18;;;;;;;16.84;80.06;98560.52;2281581;78;21130;-79
2021/07/03 04:43:48;;;;;;;15.65;13.88;;;;;;;16.92;79.60;98557.29;2281769;78;20942;-78
2021/07/03 04:46:49;;;;;;;14.85;13.25;;;;;;;17.03;79.17;98551.38;2281727;78;20895;-80
2021/07/03 04:49:50;;;;;;;13.43;12.07;;;;;;;17.12;78.60;98545.92;2281809;78;21239;-81
2021/07/03 04:52:51;;;;;;;15.60;12.23;;;;;;;17.20;78.18;98547.96;2281639;78;20898;-80
2021/07/03 04:55:52;;;;;;;12.15;10.95;;;;;;;17.28;77.65;98545.17;2281685;78;21290;-80
2021/07/03 04:58:54;;;;;;;17.42;10.70;;;;;;;17.39;77.27;98541.03;2289969;78;21372;-79
2021/07/03 05:01:55;;;;;;;11.95;10.68;;;;;;;17.45;76.64;98547.05;2291488;78;20944;-80
2021/07/03 05:04:55;;;;;;;12.90;11.68;;;;;;;17.56;76.10;98544.19;2291622;78;20908;-81
2021/07/03 05:07:56;;;;;;;15.25;11.05;;;;;;;17.82;76.58;98547.17;2291345;78;21265;-78
2021/07/03 05:10:57;;;;;;;11.43;10.38;;;;;;;18.31;73.60;98544.77;2291053;78;20940;-78
2021/07/03 05:13:58;;;;;;;12.80;10.55;;;;;;;18.06;72.85;98547.53;2291037;78;20937;-77
2021/07/03 05:16:59;;;;;;;12.45;10.63;;;;;;;18.00;73.58;98544.58;2291055;78;20936;-77
2021/07/03 05:20:00;;;;;;;12.88;11.18;;;;;;;17.89;73.51;98560.24;2291045;78;21008;-78
2021/07/03 05:23:01;;;;;;;11.48;10.53;;;;;;;17.86;73.92;98545.34;2290709;78;21316;-77
2021/07/03 05:26:02;;;;;;;12.25;10.48;;;;;;;17.95;73.70;98550.41;2291151;78;20935;-77
2021/07/03 05:29:03;;;;;;;14.55;10.32;;;;;;;17.94;73.82;98549.12;2291147;78;21315;-77
2021/07/03 05:32:04;;;;;;;13.03;10.63;;;;;;;17.95;73.43;98545.13;2291043;78;20968;-77
2021/07/03 05:35:05;;;;;;;36.50;11.03;;;;;;;17.89;73.25;98552.32;2291136;78;20896;-77
2021/07/03 05:38:07;;;;;;;10.98;8.78;;;;;;;17.83;73.62;98548.05;2290994;78;20945;-77
2021/07/03 05:41:08;;;;;;;10.45;9.33;;;;;;;17.81;73.58;98544.12;2291035;78;20916;-77
2021/07/03 05:44:09;;;;;;;12.47;9.53;;;;;;;17.75;73.64;98553.48;2291154;78;20948;-77
2021/07/03 05:47:10;;;;;;;13.05;10.05;;;;;;;17.75;74.32;98550.85;2291187;78;20960;-79
2021/07/03 05:50:11;;;;;;;12.23;9.50;;;;;;;17.69;74.09;98550.98;2291295;78;20901;-77
2021/07/03 05:53:12;;;;;;;9.50;8.38;;;;;;;17.67;74.52;98546.19;2291271;78;20999;-76
2021/07/03 05:56:13;;;;;;;11.22;9.60;;;;;;;17.73;73.94;98550.02;2291242;78;20935;-78
2021/07/03 05:59:14;;;;;;;9.40;8.38;;;;;;;17.71;73.80;98549.18;2281879;77;21329;-77
2021/07/03 06:02:15;;;;;;;12.30;8.60;;;;;;;17.72;74.05;98553.56;2281409;77;21397;-78
2021/07/03 06:05:16;;;;;;;9.38;8.23;;;;;;;17.75;73.93;98553.94;2281415;77;20883;-77
2021/07/03 06:08:17;;;;;;;8.95;7.75;;;;;;;17.81;74.04;98568.33;2281312;77;21302;-77
2021/07/03 06:11:18;;;;;;;13.50;8.48;;;;;;;17.83;73.98;98567.84;2281396;77;21080;-77
2021/07/03 06:14:19;;;;;;;12.68;8.45;;;;;;;17.78;73.77;98563.12;2281397;77;20899;-77
2021/07/03 06:17:20;;;;;;;13.60;8.13;;;;;;;17.82;73.55;98566.11;2281362;78;20918;-77
2021/07/03 06:20:22;;;;;;;14.00;8.20;;;;;;;17.78;73.68;98563.98;2281449;77;20895;-78
2021/07/03 06:23:24;;;;;;;17.23;8.45;;;;;;;17.81;73.74;98569.65;2260509;78;20871;-77
2021/07/03 06:26:26;;;;;;;11.93;7.95;;;;;;;17.81;74.04;98601.33;2281378;78;20939;-77
2021/07/03 06:29:26;;;;;;;13.15;8.30;;;;;;;17.78;74.85;98575.86;2281341;78;20914;-78
2021/07/03 06:32:27;;;;;;;8.55;7.40;;;;;;;17.80;74.55;98568.78;2281369;77;21316;-78
2021/07/03 06:35:28;;;;;;;9.83;7.10;;;;;;;17.78;74.54;98576.31;2280960;78;20958;-77
2021/07/03 06:38:29;;;;;;;8.75;6.78;;;;;;;17.82;73.94;98569.62;2281399;77;21033;-77
2021/07/03 06:41:30;;;;;;;12.00;7.20;;;;;;;17.89;74.09;98573.44;2281487;78;20871;-77
2021/07/03 06:44:31;;;;;;;7.47;6.37;;;;;;;17.88;73.54;98579.62;2281340;77;20934;-78
2021/07/03 06:47:32;;;;;;;8.25;6.97;;;;;;;17.88;73.53;98573.89;2281480;78;20903;-78
2021/07/03 06:50:33;;;;;;;7.30;6.10;;;;;;;17.92;73.45;98570.73;2281338;77;20879;-77
2021/07/03 06:53:34;;;;;;;8.48;6.37;;;;;;;18.00;73.38;98568.80;2281455;78;20907;-77
2021/07/03 06:56:35;;;;;;;7.50;5.95;;;;;;;17.95;72.73;98571.98;2281322;78;20930;-78
2021/07/03 06:59:36;;;;;;;6.62;5.58;;;;;;;17.98;72.50;98575.43;2250028;77;20939;-77
2021/07/03 07:02:37;;;;;;;11.12;4.90;;;;;;;18.01;72.34;98587.25;2249139;79;20888;-77
2021/07/03 07:05:38;;;;;;;6.90;5.28;;;;;;;18.02;71.86;98581.06;2249191;79;20948;-77
2021/07/03 07:08:39;;;;;;;7.17;5.08;;;;;;;18.07;72.03;98578.31;2250943;79;20978;-77
2021/07/03 07:11:40;;;;;;;9.58;4.80;;;;;;;18.05;71.23;98591.55;2262952;79;20935;-77
2021/07/03 07:14:42;;;;;;;6.12;5.22;;;;;;;18.08;71.62;98576.09;2262923;79;20935;-77
2021/07/03 07:17:43;;;;;;;10.25;5.42;;;;;;;18.10;71.21;98587.04;2251694;79;20980;-78
2021/07/03 07:20:44;;;;;;;8.80;5.55;;;;;;;18.12;71.52;98579.95;2249086;79;20960;-77
2021/07/03 07:23:45;;;;;;;7.20;4.85;;;;;;;18.12;71.05;98587.01;2249180;79;20904;-78
2021/07/03 07:26:46;;;;;;;6.47;5.17;;;;;;;18.15;70.65;98597.50;2249317;79;21399;-77
2021/07/03 07:29:47;;;;;;;7.55;5.08;;;;;;;18.20;70.86;98581.09;2249093;79;20909;-81
2021/07/03 07:32:48;;;;;;;8.08;4.22;;;;;;;18.25;69.91;98586.31;2249237;79;21336;-81
2021/07/03 07:35:49;;;;;;;8.98;4.70;;;;;;;18.31;69.92;98583.08;2249345;79;20932;-81
2021/07/03 07:38:50;;;;;;;15.35;5.15;;;;;;;18.37;70.22;98586.02;2249634;79;21513;-81
2021/07/03 07:41:51;;;;;;;6.37;4.70;;;;;;;18.42;69.42;98588.97;2249447;79;20920;-80
2021/07/03 07:44:52;;;;;;;6.60;4.33;;;;;;;18.50;68.95;98597.17;2249657;79;20980;-81
2021/07/03 07:47:54;;;;;;;6.67;4.62;;;;;;;18.57;68.75;98584.22;2227760;79;21061;-81
2021/07/03 07:51:00;;;;;;;5.72;4.75;;;;;;;18.65;68.07;98590.23;2249825;79;20988;-82
2021/07/03 07:54:01;;;;;;;9.70;4.72;;;;;;;18.67;68.08;98592.38;2249839;79;21004;-84
2021/07/03 07:57:02;;;;;;;13.75;4.72;;;;;;;18.65;68.44;98587.58;2249596;77;21047;-80
2021/07/03 08:00:03;;;;;;;7.62;4.47;;;;;;;18.68;68.32;98596.76;2249695;79;20940;-77
2021/07/03 08:03:04;;;;;;;6.65;4.62;;;;;;;18.80;68.37;98596.91;2249070;79;20936;-78
2021/07/03 08:06:05;;;;;;;11.43;5.22;;;;;;;18.83;67.62;98600.34;2249081;79;21324;-77
2021/07/03 08:09:06;;;;;;;11.08;5.35;;;;;;;18.89;67.51;98600.64;2249055;79;21335;-78
2021/07/03 08:12:07;;;;;;;10.30;4.90;;;;;;;18.96;67.93;98603.55;2249178;79;21308;-77
2021/07/03 08:15:08;;;;;;;12.53;5.28;;;;;;;18.93;67.15;98600.98;2249127;79;21276;-77
2021/07/03 08:18:09;;;;;;;6.95;5.15;;;;;;;18.91;67.18;98603.66;2249160;79;20904;-78
2021/07/03 08:21:10;;;;;;;10.75;5.05;;;;;;;18.87;67.85;98608.61;2249213;79;20912;-76
2021/07/03 08:24:10;;;;;;;7.33;5.03;;;;;;;18.85;67.89;98617.04;2249158;79;20909;-77
2021/07/03 08:27:11;;;;;;;9.05;4.87;;;;;;;18.86;68.09;98614.81;2249038;79;20936;-77
2021/07/03 08:30:12;;;;;;;6.70;4.92;;;;;;;18.87;67.55;98608.61;2249074;79;20939;-77
2021/07/03 08:33:13;;;;;;;7.47;5.08;;;;;;;18.94;68.08;98607.55;2249205;79;21002;-77
2021/07/03 08:36:14;;;;;;;9.68;4.90;;;;;;;19.01;67.29;98606.94;2248686;79;20920;-78
2021/07/03 08:39:15;;;;;;;7.90;4.80;;;;;;;19.11;67.00;98607.14;2248970;79;20956;-77
2021/07/03 08:42:16;;;;;;;12.65;5.05;;;;;;;19.24;67.47;98602.40;2249036;79;20897;-78
2021/07/03 08:45:17;;;;;;;8.53;6.17;;;;;;;19.40;66.86;98604.59;2249154;79;20885;-77
2021/07/03 08:48:19;;;;;;;9.70;5.33;;;;;;;19.44;65.16;98604.05;2249039;79;20897;-77
2021/07/03 08:51:21;;;;;;;6.62;4.62;;;;;;;19.51;65.41;98606.94;2249133;79;20956;-78
2021/07/03 08:54:22;;;;;;;9.33;5.30;;;;;;;19.66;65.63;98606.99;2249142;79;21375;-77
2021/07/03 08:57:23;;;;;;;8.85;4.70;;;;;;;19.85;64.75;98608.66;2251723;77;20924;-77
2021/07/03 09:00:24;;;;;;;7.83;4.62;;;;;;;19.96;64.42;98603.48;2291063;78;20969;-77
2021/07/03 09:03:25;;;;;;;8.50;5.40;;;;;;;20.07;64.65;98609.78;2291202;78;20941;-76
2021/07/03 09:06:26;;;;;;;7.72;4.87;;;;;;;20.13;63.31;98612.25;2291182;78;20964;-80
2021/07/03 09:09:27;;;;;;;10.65;5.03;;;;;;;20.18;62.68;98608.13;2291122;78;20995;-77
2021/07/03 09:12:28;;;;;;;9.93;4.83;;;;;;;20.22;61.93;98613.30;2291082;78;20912;-78
2021/07/03 09:15:29;;;;;;;6.72;5.12;;;;;;;20.17;61.76;98623.63;2291192;78;21105;-77
2021/07/03 09:18:30;;;;;;;9.15;5.35;;;;;;;20.16;62.25;98605.53;2291105;78;20960;-77
2021/07/03 09:21:31;;;;;;;20.32;5.83;;;;;;;20.17;62.23;98608.59;2291201;78;20896;-77
2021/07/03 09:24:32;;;;;;;10.50;5.15;;;;;;;20.20;63.91;98604.98;2291162;78;20865;-77
2021/07/03 09:27:33;;;;;;;6.05;4.65;;;;;;;20.19;63.63;98609.41;2291080;78;20912;-77
2021/07/03 09:30:34;;;;;;;11.22;5.05;;;;;;;20.16;64.12;98606.86;2291307;78;21087;-77
2021/07/03 09:33:35;;;;;;;8.98;5.42;;;;;;;20.12;63.51;98599.91;2291313;78;21000;-77
2021/07/03 09:36:36;;;;;;;9.28;5.70;;;;;;;20.12;63.63;98610.97;2291235;78;21355;-77
2021/07/03 09:39:37;;;;;;;9.93;4.78;;;;;;;20.19;63.87;98593.52;2291171;78;21044;-77
2021/07/03 09:42:38;;;;;;;7.97;5.15;;;;;;;20.28;62.95;98602.96;2291342;78;21349;-77
2021/07/03 09:45:39;;;;;;;7.80;5.67;;;;;;;20.29;63.05;98602.05;2291263;78;20896;-77
2021/07/03 09:48:40;;;;;;;7.47;4.97;;;;;;;20.44;62.70;98600.73;2291297;78;20905;-77
2021/07/03 09:51:41;;;;;;;11.60;5.50;;;;;;;20.62;61.57;98590.86;2291412;78;20892;-77
2021/07/03 09:54:42;;;;;;;8.73;5.67;;;;;;;20.72;61.28;98588.77;2291240;78;20932;-78
2021/07/03 09:57:43;;;;;;;10.35;5.20;;;;;;;20.57;62.35;98586.16;2290564;78;20931;-77
2021/07/03 10:00:44;;;;;;;9.33;5.33;;;;;;;20.48;63.31;98591.77;2281516;77;20911;-79
2021/07/03 10:03:45;;;;;;;7.30;5.62;;;;;;;20.58;63.25;98588.77;2281512;77;20902;-78
2021/07/03 10:06:46;;;;;;;8.68;5.58;;;;;;;20.81;62.32;98580.54;2281415;78;20901;-78
2021/07/03 10:09:47;;;;;;;7.03;6.10;;;;;;;20.97;61.60;98583.08;2281689;77;21049;-78
2021/07/03 10:12:48;;;;;;;10.32;7.10;;;;;;;21.06;61.54;98580.57;2281680;78;20907;-77
2021/07/03 10:15:49;;;;;;;9.88;6.10;;;;;;;21.12;60.74;98574.59;2281340;78;20918;-78
2021/07/03 10:18:51;;;;;;;14.50;5.17;;;;;;;21.09;60.47;98578.68;2281109;77;21415;-77
2021/07/03 10:21:52;;;;;;;10.05;5.62;;;;;;;21.05;61.03;98569.55;2281549;77;21346;-78
2021/07/03 10:24:53;;;;;;;8.23;5.47;;;;;;;21.20;60.31;98566.36;2281400;77;20934;-77
2021/07/03 10:27:54;;;;;;;11.83;5.50;;;;;;;21.27;60.32;98562.59;2281523;77;21379;-77
2021/07/03 10:30:55;;;;;;;7.37;5.35;;;;;;;21.35;60.40;98560.53;2280984;77;20899;-78
2021/07/03 10:33:58;;;;;;;8.10;5.50;;;;;;;21.36;60.18;98560.94;2281361;77;20910;-78
2021/07/03 10:36:58;;;;;;;9.95;6.05;;;;;;;21.28;61.53;98566.98;2281371;77;21016;-78
2021/07/03 10:39:59;;;;;;;7.00;5.17;;;;;;;21.11;61.90;98575.97;2281420;77;20950;-77
2021/07/03 10:43:00;;;;;;;12.10;6.15;;;;;;;20.83;61.97;98578.24;2281489;78;20966;-77
2021/07/03 10:46:01;;;;;;;11.25;5.20;;;;;;;20.75;62.57;98580.71;2281360;78;20914;-78
2021/07/03 10:49:02;;;;;;;8.75;5.55;;;;;;;20.68;62.37;98578.72;2281510;78;20946;-76
2021/07/03 10:52:03;;;;;;;10.45;6.10;;;;;;;20.58;63.63;98575.97;2281401;77;20962;-78
2021/07/03 10:55:04;;;;;;;10.53;6.05;;;;;;;20.54;63.04;98573.88;2281496;77;20906;-78
2021/07/03 10:58:05;;;;;;;7.37;5.58;;;;;;;20.53;63.06;98577.44;2277073;77;21324;-77
2021/07/03 11:01:06;;;;;;;9.43;5.80;;;;;;;20.56;63.42;98579.12;2249123;79;20952;-77
2021/07/03 11:04:07;;;;;;;11.30;6.30;;;;;;;20.58;63.07;98590.09;2249255;79;20957;-78
2021/07/03 11:07:10;;;;;;;13.22;6.33;;;;;;;20.55;63.50;98588.86;2248939;79;21724;-76
2021/07/03 11:10:11;;;;;;;12.75;6.22;;;;;;;20.52;63.97;98588.09;2249093;79;21046;-77
2021/07/03 11:13:12;;;;;;;7.47;6.70;;;;;;;20.25;65.02;98598.63;2249197;79;20899;-78
2021/07/03 11:16:13;;;;;;;9.65;6.87;;;;;;;20.15;66.29;98602.93;2249107;79;20928;-78
2021/07/03 11:19:14;;;;;;;9.25;7.92;;;;;;;19.90;67.45;98602.31;2249142;79;20872;-78
2021/07/03 11:22:15;;;;;;;7.97;7.17;;;;;;;19.98;67.96;98591.52;2249140;79;20869;-77
2021/07/03 11:25:16;;;;;;;8.83;6.65;;;;;;;20.43;67.78;98579.11;2249204;79;20924;-77
2021/07/03 11:28:20;;;;;;;7.92;5.70;;;;;;;20.75;66.04;98573.63;2249099;79;21285;-77
2021/07/03 11:31:22;;;;;;;7.28;5.45;;;;;;;21.12;64.41;98574.59;2249079;79;20961;-78
2021/07/03 11:34:23;;;;;;;9.23;5.40;;;;;;;21.35;61.61;98564.98;2249207;79;20935;-76
2021/07/03 11:37:24;;;;;;;9.78;6.22;;;;;;;21.48;60.15;98565.80;2249076;79;20964;-79
2021/07/03 11:40:25;;;;;;;11.53;5.25;;;;;;;21.72;59.49;98563.20;2249142;79;20967;-78
2021/07/03 11:43:26;;;;;;;7.97;5.62;;;;;;;21.86;58.65;98572.84;2249221;79;20928;-77
2021/07/03 11:46:27;;;;;;;10.53;5.95;;;;;;;21.90;57.24;98566.02;2249172;79;20957;-78
2021/07/03 11:49:28;;;;;;;10.75;5.70;;;;;;;21.91;57.58;98573.53;2249218;79;21327;-77
2021/07/03 11:52:29;;;;;;;11.63;5.25;;;;;;;21.90;58.42;98567.81;2249183;79;20971;-77
2021/07/03 11:55:29;;;;;;;13.35;6.12;;;;;;;22.00;58.53;98569.19;2249225;79;21267;-77
2021/07/03 11:58:31;;;;;;;8.55;5.87;;;;;;;21.88;57.46;98570.53;2255439;77;20953;-77
2021/07/03 12:01:32;;;;;;;12.18;5.92;;;;;;;21.91;59.08;98562.91;2281369;78;20910;-77
2021/07/03 12:04:33;;;;;;;10.30;5.65;;;;;;;21.96;59.27;98556.95;2281229;78;20922;-77
2021/07/03 12:07:35;;;;;;;7.90;5.17;;;;;;;21.79;58.96;98566.03;2281392;78;20929;-77
2021/07/03 12:10:36;;;;;;;10.63;6.00;;;;;;;21.64;59.10;98559.47;2271992;77;21026;-77
2021/07/03 12:13:37;;;;;;;11.25;5.65;;;;;;;21.54;59.39;98558.94;2248839;79;21277;-77
2021/07/03 12:16:38;;;;;;;8.90;5.62;;;;;;;21.49;59.92;98558.24;2260795;78;20938;-78
2021/07/03 12:19:42;;;;;;;10.55;6.25;;;;;;;21.40;60.56;98555.06;2281293;77;20887;-78
2021/07/03 12:22:41;;;;;;;6.60;5.92;;;;;;;21.37;60.66;98544.09;2281153;78;20961;-78
2021/07/03 12:25:42;;;;;;;8.58;5.95;;;;;;;21.49;61.33;98540.12;2281372;78;20941;-76
2021/07/03 12:28:43;;;;;;;8.18;5.72;;;;;;;21.49;60.93;98546.30;2281282;78;20914;-78
2021/07/03 12:31:44;;;;;;;9.25;6.10;;;;;;;21.47;60.19;98545.48;2281411;78;20966;-78
2021/07/03 12:34:45;;;;;;;9.23;5.53;;;;;;;21.44;59.57;98549.58;2281393;77;20981;-78
2021/07/03 12:37:48;;;;;;;5.70;5.10;;;;;;;21.35;59.60;98541.95;2281358;78;20926;-77
2021/07/03 12:40:49;;;;;;;8.35;5.30;;;;;;;21.21;58.12;98545.07;2280985;78;20966;-78
2021/07/03 12:43:49;;;;;;;8.15;4.87;;;;;;;20.99;58.15;98546.75;2281397;78;20933;-77
2021/07/03 12:46:50;;;;;;;9.13;5.00;;;;;;;20.91;58.44;98551.00;2281258;77;20895;-77
2021/07/03 12:49:51;;;;;;;5.90;5.40;;;;;;;20.89;59.39;98553.30;2281250;78;20946;-77
2021/07/03 12:52:52;;;;;;;6.70;5.08;;;;;;;20.89;59.42;98554.62;2281293;77;20919;-77
2021/07/03 12:55:53;;;;;;;12.30;5.40;;;;;;;20.96;59.84;98546.39;2281202;78;20907;-76
2021/07/03 12:58:54;;;;;;;10.30;5.25;;;;;;;20.98;59.60;98551.19;2273128;77;20959;-77
2021/07/03 13:01:55;;;;;;;12.70;6.28;;;;;;;21.05;59.72;98553.17;2249254;79;21344;-78
2021/07/03 13:04:56;;;;;;;8.98;6.28;;;;;;;21.08;58.81;98543.77;2249251;79;20917;-78
2021/07/03 13:07:57;;;;;;;7.33;5.87;;;;;;;21.11;59.00;98548.11;2249269;79;20904;-78
2021/07/03 13:10:58;;;;;;;10.95;5.90;;;;;;;21.22;59.12;98542.86;2249180;79;20979;-78
2021/07/03 13:13:59;;;;;;;10.50;5.08;;;;;;;21.37;58.46;98534.80;2249236;79;21126;-77
2021/07/03 13:17:00;;;;;;;8.08;5.30;;;;;;;21.40;57.94;98535.14;2249241;79;20932;-78
2021/07/03 13:20:01;;;;;;;10.15;5.65;;;;;;;21.40;57.87;98532.48;2249237;79;20985;-77
2021/07/03 13:23:02;;;;;;;8.85;5.55;;;;;;;21.47;57.09;98519.39;2249245;79;20901;-77
2021/07/03 13:26:02;;;;;;;10.82;6.47;;;;;;;21.56;56.79;98521.24;2249213;79;20983;-78
2021/07/03 13:29:03;;;;;;;12.43;8.45;;;;;;;21.76;56.53;98523.17;2249228;79;20952;-77
2021/07/03 13:32:07;;;;;;;12.47;6.05;;;;;;;21.91;56.87;98523.05;2249238;79;20956;-77
2021/07/03 13:35:08;;;;;;;12.10;5.55;;;;;;;22.15;55.93;98518.59;2249094;79;21336;-76
2021/07/03 13:38:09;;;;;;;11.85;6.08;;;;;;;22.38;55.47;98517.19;2249369;79;20915;-76
2021/07/03 13:41:10;;;;;;;9.78;5.05;;;;;;;22.46;54.36;98512.42;2249126;79;20944;-77
2021/07/03 13:44:11;;;;;;;7.62;5.20;;;;;;;22.72;54.37;98515.35;2249246;79;20980;-77
2021/07/03 13:47:12;;;;;;;6.83;5.05;;;;;;;23.06;53.52;98512.59;2249215;79;20909;-76
2021/07/03 13:50:13;;;;;;;7.37;5.00;;;;;;;23.25;53.39;98517.51;2249332;79;20905;-77
2021/07/03 13:53:14;;;;;;;9.23;5.30;;;;;;;23.28;52.10;98513.84;2249205;79;20964;-77
2021/07/03 13:56:15;;;;;;;13.28;5.47;;;;;;;23.55;51.17;98518.45;2249283;79;20904;-77
2021/07/03 13:59:16;;;;;;;10.18;4.60;;;;;;;23.42;51.19;98510.13;2257980;77;21005;-76
2021/07/03 14:02:17;;;;;;;10.80;4.80;;;;;;;23.28;51.29;98520.50;2281434;77;21017;-77
2021/07/03 14:05:18;;;;;;;9.13;4.65;;;;;;;23.16;51.68;98516.13;2281393;78;20872;-76